Time;durP1;ratioP1;P1;durP2;ratioP2;P2;SDS_P1;SDS_P2;PMS_P1;PMS_P2;Temp;Humidity;BMP_temperature;BMP_pressure;BME280_temperature;BME280_humidity;BME280_pressure;Samples;Min_cycle;Max_cycle;Signal;HPM_P1;HPM_P2
2022/09/13 00:00:52;;;;;;;0.00;0.00;;;;;;;14.30;71.81;100922.91;7362904;19;20086;-63
2022/09/13 00:03:18;;;;;;;0.00;0.00;;;;;;;14.26;71.49;100914.28;7357561;19;20010;-62
2022/09/13 00:05:44;;;;;;;0.00;0.00;;;;;;;14.16;72.57;100894.47;7359119;19;20018;-63
2022/09/13 00:08:10;;;;;;;0.00;0.00;;;;;;;14.15;72.82;100902.44;7356479;19;20014;-63
2022/09/13 00:10:38;;;;;;;0.00;0.00;;;;;;;14.22;72.83;100923.16;7358531;19;20022;-63
2022/09/13 00:13:03;;;;;;;;;;;;;;;14.22;71.44;100931.03;7362447;19;20007;-62
2022/09/13 00:15:29;;;;;;;0.00;0.00;;;;;;;14.17;73.20;100925.09;7363668;19;20838;-63
2022/09/13 00:17:55;;;;;;;0.00;0.00;;;;;;;14.16;73.82;100922.53;7361769;19;20013;-63
2022/09/13 00:20:21;;;;;;;0.00;0.00;;;;;;;14.12;73.34;100924.38;7363508;19;20014;-63
2022/09/13 00:22:46;;;;;;;0.00;0.00;;;;;;;14.09;72.83;100929.75;7362788;19;20098;-63
2022/09/13 00:25:11;;;;;;;0.00;0.00;;;;;;;14.07;72.41;100930.69;7362960;19;20039;-63
2022/09/13 00:27:37;;;;;;;0.00;0.00;;;;;;;14.02;72.26;100915.94;7367173;19;20034;-63
2022/09/13 00:30:07;;;;;;;0.00;0.00;;;;;;;14.01;72.04;100916.00;7364549;19;20014;-62
2022/09/13 00:32:34;;;;;;;0.00;0.00;;;;;;;13.98;72.07;100911.72;7367543;19;20010;-62
2022/09/13 00:35:00;;;;;;;0.00;0.00;;;;;;;13.94;72.06;100917.13;7363048;19;20924;-63
2022/09/13 00:37:25;;;;;;;0.00;0.00;;;;;;;13.94;72.39;100925.00;7365989;19;20014;-62
2022/09/13 00:39:51;;;;;;;0.00;0.00;;;;;;;13.89;73.04;100912.03;7364114;19;20060;-62
2022/09/13 00:42:17;;;;;;;0.00;0.00;;;;;;;13.90;73.40;100913.75;7365355;19;20011;-63
2022/09/13 00:45:01;;;;;;;0.00;0.00;;;;;;;13.91;72.01;100914.59;7364455;19;20013;-63
2022/09/13 00:47:50;;;;;;;0.00;0.00;;;;;;;13.87;72.08;100907.72;7366020;19;20043;-63
2022/09/13 00:50:41;;;;;;;0.00;0.00;;;;;;;13.85;71.70;100910.41;7365711;19;20558;-62
2022/09/13 00:53:26;;;;;;;0.00;0.00;;;;;;;13.82;72.01;100915.75;7363544;19;20027;-63
2022/09/13 00:56:26;;;;;;;0.00;0.00;;;;;;;13.80;72.42;100911.47;7364571;19;20018;-63
2022/09/13 00:58:58;;;;;;;0.00;0.00;;;;;;;13.75;73.62;100915.09;7263233;19;2005030;-63
2022/09/13 01:01:32;;;;;;;0.00;0.00;;;;;;;13.72;72.60;100909.94;7363604;19;20006;-62
2022/09/13 01:03:57;;;;;;;0.00;0.00;;;;;;;13.68;72.31;100912.72;7365744;19;20090;-62
2022/09/13 01:06:31;;;;;;;0.00;0.00;;;;;;;13.61;73.80;100892.84;7366037;19;20043;-62
2022/09/13 01:09:03;;;;;;;0.00;0.00;;;;;;;13.64;74.12;100906.72;7365655;19;20013;-63
2022/09/13 01:11:35;;;;;;;0.00;0.00;;;;;;;13.62;72.31;100908.53;7367571;19;20014;-63
2022/09/13 01:14:02;;;;;;;0.00;0.00;;;;;;;13.58;72.87;100904.28;7363905;19;20014;-63
2022/09/13 01:16:27;;;;;;;0.00;0.00;;;;;;;13.54;72.70;100905.31;7366682;19;20026;-62
2022/09/13 01:18:52;;;;;;;0.00;0.00;;;;;;;13.51;73.06;100910.63;7365162;19;20011;-63
2022/09/13 01:21:49;;;;;;;0.00;0.00;;;;;;;13.49;73.00;100908.06;7366031;19;20382;-63
2022/09/13 01:24:32;;;;;;;0.00;0.00;;;;;;;13.45;72.63;100903.81;7264603;19;2004262;-62
2022/09/13 01:27:18;;;;;;;0.00;0.00;;;;;;;13.34;72.94;100891.94;7365192;19;20895;-62
2022/09/13 01:30:04;;;;;;;0.00;0.00;;;;;;;13.41;74.22;100909.19;7365849;19;20452;-62
2022/09/13 01:33:01;;;;;;;0.00;0.00;;;;;;;13.40;73.88;100915.38;7366112;19;20027;-63
2022/09/13 01:35:55;;;;;;;0.00;0.00;;;;;;;13.37;74.53;100913.69;7263257;19;2004489;-63
2022/09/13 01:38:51;;;;;;;0.00;0.00;;;;;;;13.35;74.18;100915.50;7264434;19;2004312;-62
2022/09/13 01:41:41;;;;;;;0.00;0.00;;;;;;;13.33;73.78;100916.44;7261168;19;2004410;-62
2022/09/13 01:44:21;;;;;;;0.00;0.00;;;;;;;13.32;73.64;100925.22;7264705;19;2004440;-62
2022/09/13 01:47:09;;;;;;;0.00;0.00;;;;;;;13.30;73.19;100913.94;7365435;19;20010;-62
2022/09/13 01:50:06;;;;;;;0.00;0.00;;;;;;;13.27;73.42;100924.50;7363905;19;20559;-63
2022/09/13 01:53:01;;;;;;;0.00;0.00;;;;;;;13.23;73.18;100927.22;7260094;19;2004457;-63
2022/09/13 01:55:36;;;;;;;0.00;0.00;;;;;;;13.21;73.46;100920.25;7260576;19;2004814;-63
2022/09/13 01:58:16;;;;;;;0.00;0.00;;;;;;;13.20;73.26;100921.19;7354759;19;20010;-62
2022/09/13 02:01:04;;;;;;;0.00;0.00;;;;;;;13.17;73.52;100911.63;7364040;19;20476;-63
2022/09/13 02:03:55;;;;;;;0.00;0.00;;;;;;;13.14;73.64;100911.72;7364095;19;20049;-62
2022/09/13 02:06:26;;;;;;;0.00;0.00;;;;;;;13.11;73.34;100909.19;7261565;19;2004398;-62
2022/09/13 02:09:09;;;;;;;0.00;0.00;;;;;;;12.96;73.55;100891.28;7364166;19;20031;-62
2022/09/13 02:11:39;;;;;;;0.00;0.00;;;;;;;13.04;74.55;100910.28;7363387;19;20757;-63
2022/09/13 02:14:16;;;;;;;0.00;0.00;;;;;;;13.07;74.36;100911.94;7361358;19;20706;-63
2022/09/13 02:17:02;;;;;;;0.08;0.08;;;;;;;13.05;74.44;100905.91;7362904;19;20089;-62
2022/09/13 02:19:37;;;;;;;0.00;0.00;;;;;;;13.00;74.34;100892.94;7359311;19;20036;-62
2022/09/13 02:22:06;;;;;;;0.00;0.00;;;;;;;13.02;74.65;100893.72;7363849;19;20010;-63
2022/09/13 02:24:40;;;;;;;0.00;0.00;;;;;;;12.99;74.65;100893.84;7361211;19;20462;-62
2022/09/13 02:27:12;;;;;;;0.00;0.00;;;;;;;13.01;75.63;100901.66;7364392;19;20014;-62
2022/09/13 02:29:42;;;;;;;0.00;0.00;;;;;;;12.98;76.26;100905.25;7360250;19;20010;-62
2022/09/13 02:32:20;;;;;;;0.00;0.00;;;;;;;12.97;75.63;100906.13;7362103;19;20010;-63
2022/09/13 02:35:07;;;;;;;0.00;0.00;;;;;;;12.96;75.78;100907.03;7363995;19;20477;-62
2022/09/13 02:37:35;;;;;;;0.00;0.00;;;;;;;12.92;76.07;100910.63;7360846;19;20117;-63
2022/09/13 02:40:08;;;;;;;0.00;0.00;;;;;;;12.88;75.73;100906.41;7360830;19;20391;-63
2022/09/13 02:42:40;;;;;;;0.00;0.00;;;;;;;12.91;75.68;100906.28;7363149;19;20007;-62
2022/09/13 02:45:07;;;;;;;0.00;0.00;;;;;;;12.89;75.89;100905.50;7363183;19;20392;-63
2022/09/13 02:47:56;;;;;;;0.00;0.00;;;;;;;12.89;74.78;100905.50;7358631;19;20059;-62
2022/09/13 02:50:42;;;;;;;0.00;0.00;;;;;;;12.86;74.85;100903.81;7360493;19;20013;-62
2022/09/13 02:53:34;;;;;;;0.00;0.00;;;;;;;12.85;75.63;100909.09;7361165;19;20014;-63
2022/09/13 02:56:19;;;;;;;0.00;0.00;;;;;;;12.83;75.10;100906.53;7264312;19;2004260;-62
2022/09/13 02:59:06;;;;;;;0.00;0.00;;;;;;;12.80;76.52;100911.00;7364216;19;20007;-62
2022/09/13 03:01:35;;;;;;;0.00;0.00;;;;;;;12.75;75.82;100897.16;7367920;19;20006;-62
2022/09/13 03:04:02;;;;;;;0.00;0.00;;;;;;;12.76;76.35;100899.72;7356709;19;20010;-63
2022/09/13 03:06:28;;;;;;;0.00;0.00;;;;;;;12.73;75.87;100895.47;7366611;19;20490;-63
2022/09/13 03:08:58;;;;;;;0.00;0.00;;;;;;;12.66;75.78;100893.88;7364360;19;20051;-63
2022/09/13 03:11:45;;;;;;;0.00;0.00;;;;;;;12.75;75.21;100889.31;7363325;19;20737;-62
2022/09/13 03:14:30;;;;;;;0.00;0.00;;;;;;;12.72;74.70;100893.75;7365842;19;20019;-62
2022/09/13 03:17:33;;;;;;;0.00;0.00;;;;;;;12.71;75.23;100886.75;7357694;19;20018;-62
2022/09/13 03:20:33;;;;;;;0.00;0.00;;;;;;;12.69;75.75;100893.81;7262218;19;2004627;-62
2022/09/13 03:23:16;;;;;;;0.00;0.00;;;;;;;12.59;75.48;100876.63;7262059;19;2003855;-62
2022/09/13 03:25:47;;;;;;;0.00;0.00;;;;;;;12.67;75.75;100887.78;7365598;19;20352;-62
2022/09/13 03:28:41;;;;;;;0.00;0.00;;;;;;;12.66;75.19;100888.66;7366223;19;20010;-63
2022/09/13 03:31:15;;;;;;;0.00;0.00;;;;;;;12.62;75.84;100880.91;7263658;19;2004580;-62
2022/09/13 03:33:51;;;;;;;0.00;0.00;;;;;;;12.62;75.84;100881.81;7365294;19;20029;-63
2022/09/13 03:36:20;;;;;;;0.00;0.00;;;;;;;12.58;75.64;100880.16;7363136;19;20109;-63
2022/09/13 03:39:04;;;;;;;0.00;0.00;;;;;;;12.58;75.26;100882.78;7365357;19;20002;-62
2022/09/13 03:41:35;;;;;;;0.00;0.00;;;;;;;12.57;75.69;100878.47;7366510;19;20007;-62
2022/09/13 03:44:06;;;;;;;0.00;0.00;;;;;;;12.54;75.71;100883.78;7365813;19;20027;-63
2022/09/13 03:46:45;;;;;;;0.00;0.00;;;;;;;12.55;75.14;100895.97;7365735;19;20010;-63
2022/09/13 03:49:16;;;;;;;0.00;0.00;;;;;;;12.54;75.42;100896.00;7367397;19;20021;-63
2022/09/13 03:51:44;;;;;;;0.00;0.00;;;;;;;12.53;76.50;100902.16;7364915;19;20010;-62
2022/09/13 03:54:17;;;;;;;0.00;0.00;;;;;;;12.51;76.35;100904.78;7364637;19;20011;-63
2022/09/13 03:56:43;;;;;;;0.00;0.00;;;;;;;12.50;76.52;100908.31;7365168;19;20017;-62
2022/09/13 03:59:08;;;;;;;0.00;0.00;;;;;;;12.49;76.45;100905.75;7366146;19;20019;-62
2022/09/13 04:01:33;;;;;;;0.00;0.00;;;;;;;12.46;76.48;100909.31;7363679;19;20010;-63
2022/09/13 04:03:59;;;;;;;0.00;0.00;;;;;;;12.44;76.18;100908.50;7360901;19;20796;-63
2022/09/13 04:06:24;;;;;;;0.00;0.00;;;;;;;12.43;76.77;100904.16;7364100;19;20043;-62
2022/09/13 04:08:50;;;;;;;0.00;0.00;;;;;;;12.39;76.05;100897.28;7365853;19;20534;-62
2022/09/13 04:11:15;;;;;;;0.00;0.00;;;;;;;12.40;76.86;100901.63;7364694;19;20010;-63
2022/09/13 04:13:41;;;;;;;0.00;0.00;;;;;;;12.39;77.17;100899.91;7365262;19;20137;-62
2022/09/13 04:16:07;;;;;;;0.00;0.00;;;;;;;12.39;76.73;100894.66;7368393;19;20014;-62
2022/09/13 04:18:33;;;;;;;0.00;0.00;;;;;;;12.36;76.71;100886.88;7362122;19;20006;-62
2022/09/13 04:21:00;;;;;;;0.00;0.00;;;;;;;12.36;77.10;100884.25;7364613;19;20086;-62
2022/09/13 04:23:27;;;;;;;0.00;0.00;;;;;;;12.35;76.84;100893.03;7365961;19;20006;-62
2022/09/13 04:25:53;;;;;;;0.00;0.00;;;;;;;12.34;76.62;100886.94;7364255;19;20053;-63
2022/09/13 04:28:20;;;;;;;0.00;0.00;;;;;;;12.33;76.49;100895.69;7364861;19;20018;-62
2022/09/13 04:30:46;;;;;;;0.00;0.00;;;;;;;12.31;76.60;100892.25;7362965;19;20236;-62
2022/09/13 04:33:12;;;;;;;0.00;0.00;;;;;;;12.30;76.89;100900.16;7363769;19;20104;-63
2022/09/13 04:35:38;;;;;;;0.00;0.00;;;;;;;12.17;76.67;100884.78;7363216;19;20030;-62
2022/09/13 04:38:04;;;;;;;0.00;0.00;;;;;;;12.27;76.83;100901.09;7365945;19;20035;-63
2022/09/13 04:40:30;;;;;;;0.00;0.00;;;;;;;12.25;76.98;100891.56;7363384;19;20010;-63
2022/09/13 04:42:56;;;;;;;0.00;0.00;;;;;;;12.24;76.81;100889.84;7364346;19;20040;-61
2022/09/13 04:45:22;;;;;;;0.00;0.00;;;;;;;12.23;76.97;100898.59;7364770;19;20047;-62
2022/09/13 04:47:55;;;;;;;0.00;0.00;;;;;;;12.24;76.42;100895.94;7365278;19;21076;-62
2022/09/13 04:50:22;;;;;;;0.00;0.00;;;;;;;12.22;76.79;100891.66;7363184;19;20025;-62
2022/09/13 04:52:47;;;;;;;0.00;0.00;;;;;;;12.16;76.94;100883.03;7363702;19;20026;-62
2022/09/13 04:55:13;;;;;;;0.00;0.00;;;;;;;12.15;76.60;100878.69;7364375;19;20006;-62
2022/09/13 04:57:39;;;;;;;0.00;0.00;;;;;;;12.20;77.12;100894.28;7364013;19;20699;-62
2022/09/13 05:00:05;;;;;;;0.00;0.00;;;;;;;12.16;76.87;100888.25;7363587;19;20026;-62
2022/09/13 05:02:31;;;;;;;0.00;0.00;;;;;;;12.11;77.29;100877.06;7363060;19;20003;-62
2022/09/13 05:04:56;;;;;;;0.00;0.00;;;;;;;12.10;77.09;100875.34;7360087;19;20555;-62
2022/09/13 05:07:21;;;;;;;0.00;0.00;;;;;;;12.16;77.01;100893.50;7365060;19;20038;-63
2022/09/13 05:09:47;;;;;;;0.00;0.00;;;;;;;12.17;76.82;100895.25;7360962;19;20628;-62
2022/09/13 05:12:12;;;;;;;0.00;0.00;;;;;;;12.00;76.62;100859.91;7363566;19;20018;-62
2022/09/13 05:14:38;;;;;;;0.00;0.00;;;;;;;12.16;77.24;100887.41;7362189;19;20014;-62
2022/09/13 05:17:03;;;;;;;0.00;0.00;;;;;;;12.11;77.39;100884.06;7361037;19;20073;-63
2022/09/13 05:19:29;;;;;;;0.00;0.00;;;;;;;12.07;76.74;100878.06;7361921;19;20010;-62
2022/09/13 05:21:54;;;;;;;0.00;0.00;;;;;;;12.12;76.98;100880.56;7365448;19;20011;-62
2022/09/13 05:24:19;;;;;;;0.00;0.00;;;;;;;12.12;76.74;100885.78;7362601;19;20021;-63
2022/09/13 05:26:45;;;;;;;0.00;0.00;;;;;;;12.09;76.71;100881.47;7362755;19;20027;-62
2022/09/13 05:29:10;;;;;;;0.00;0.00;;;;;;;12.00;76.80;100868.63;7361813;19;20027;-62
2022/09/13 05:31:38;;;;;;;0.00;0.00;;;;;;;12.08;76.65;100871.06;7364541;19;20010;-63
2022/09/13 05:34:09;;;;;;;0.00;0.00;;;;;;;12.06;76.89;100878.94;7360924;19;20022;-62
2022/09/13 05:36:35;;;;;;;0.00;0.00;;;;;;;12.05;77.57;100879.84;7363536;19;20026;-62
2022/09/13 05:39:01;;;;;;;0.00;0.00;;;;;;;12.04;77.30;100879.88;7361037;19;20014;-62
2022/09/13 05:41:26;;;;;;;0.00;0.00;;;;;;;12.03;77.37;100871.19;7361327;19;20010;-62
2022/09/13 05:43:52;;;;;;;0.00;0.00;;;;;;;12.02;76.94;100869.47;7362863;19;20023;-62
2022/09/13 05:46:19;;;;;;;0.00;0.00;;;;;;;11.94;77.07;100847.84;7362190;19;20714;-62
2022/09/13 05:48:45;;;;;;;0.00;0.00;;;;;;;11.98;76.99;100853.88;7360808;19;20018;-62
2022/09/13 05:51:19;;;;;;;0.00;0.00;;;;;;;11.92;76.61;100841.81;7364626;19;20003;-63
2022/09/13 05:53:47;;;;;;;0.00;0.00;;;;;;;11.98;76.78;100867.81;7359413;19;20015;-62
2022/09/13 05:56:17;;;;;;;;;;;;;;;11.99;75.62;100863.44;7363241;19;20018;-62
2022/09/13 05:58:45;;;;;;;0.00;0.00;;;;;;;11.96;76.69;100880.06;7350242;19;19963;-62
2022/09/13 06:01:12;;;;;;;0.00;0.00;;;;;;;11.94;77.27;100877.50;7366708;19;20010;-62
2022/09/13 06:03:38;;;;;;;0.00;0.00;;;;;;;11.89;77.38;100866.28;7363054;19;20014;-62
2022/09/13 06:06:04;;;;;;;0.00;0.00;;;;;;;11.92;77.23;100867.97;7362630;19;20002;-62
2022/09/13 06:08:31;;;;;;;0.00;0.00;;;;;;;11.92;77.15;100873.22;7364311;19;20040;-62
2022/09/13 06:11:08;;;;;;;0.00;0.00;;;;;;;11.93;77.08;100874.94;7363809;19;20053;-62
2022/09/13 06:13:35;;;;;;;0.00;0.00;;;;;;;11.89;77.19;100870.66;7362501;19;20003;-62
2022/09/13 06:16:02;;;;;;;0.00;0.00;;;;;;;11.91;77.26;100861.00;7363273;19;20026;-63
2022/09/13 06:18:28;;;;;;;0.00;0.00;;;;;;;11.89;77.26;100862.81;7362664;19;20749;-62
2022/09/13 06:21:02;;;;;;;0.00;0.00;;;;;;;11.92;77.18;100863.59;7360788;19;20002;-62
2022/09/13 06:23:28;;;;;;;0.00;0.00;;;;;;;11.91;77.15;100861.00;7361484;19;20011;-62
2022/09/13 06:26:07;;;;;;;0.00;0.00;;;;;;;11.95;77.11;100852.19;7362113;19;20027;-62
2022/09/13 06:28:33;;;;;;;0.00;0.00;;;;;;;11.92;77.24;100853.13;7362606;19;20046;-62
2022/09/13 06:31:11;;;;;;;0.00;0.00;;;;;;;11.99;77.07;100845.97;7370111;19;20014;-62
2022/09/13 06:33:39;;;;;;;0.00;0.00;;;;;;;12.01;77.03;100848.53;7367115;19;20002;-62
2022/09/13 06:36:07;;;;;;;0.00;0.00;;;;;;;12.04;77.19;100851.94;7366425;19;20017;-62
2022/09/13 06:38:33;;;;;;;0.00;0.00;;;;;;;12.02;77.67;100848.53;7360850;19;20858;-62
2022/09/13 06:41:03;;;;;;;0.00;0.00;;;;;;;12.10;77.21;100854.41;7365280;19;20011;-62
2022/09/13 06:43:29;;;;;;;0.00;0.00;;;;;;;12.15;77.71;100863.00;7366695;19;20014;-63
2022/09/13 06:45:59;;;;;;;0.00;0.00;;;;;;;12.23;77.41;100867.19;7366930;19;20077;-62
2022/09/13 06:48:24;;;;;;;0.00;0.00;;;;;;;12.27;77.74;100874.06;7365992;19;20014;-63
2022/09/13 06:50:50;;;;;;;0.00;0.00;;;;;;;12.28;77.31;100866.16;7367525;19;20335;-62
2022/09/13 06:53:15;;;;;;;0.00;0.00;;;;;;;12.26;77.45;100851.38;7363078;19;20010;-62
2022/09/13 06:55:40;;;;;;;0.00;0.00;;;;;;;12.44;78.00;100877.06;7360166;19;20985;-62
2022/09/13 06:58:06;;;;;;;0.00;0.00;;;;;;;12.53;77.50;100886.44;7364751;19;20006;-62
2022/09/13 07:00:31;;;;;;;0.00;0.00;;;;;;;12.61;77.91;100893.16;7366651;19;20015;-62
2022/09/13 07:02:56;;;;;;;0.00;0.00;;;;;;;12.69;78.11;100893.81;7367003;19;20018;-62
2022/09/13 07:05:22;;;;;;;0.00;0.00;;;;;;;12.66;77.82;100880.78;7364515;19;20340;-62
2022/09/13 07:07:47;;;;;;;0.00;0.00;;;;;;;12.86;77.58;100895.94;7366153;19;20034;-62
2022/09/13 07:10:13;;;;;;;0.00;0.00;;;;;;;12.85;78.09;100877.66;7369199;19;20097;-62
2022/09/13 07:12:41;;;;;;;0.00;0.00;;;;;;;13.09;77.77;100903.16;7368791;19;20513;-62
2022/09/13 07:15:07;;;;;;;0.00;0.00;;;;;;;13.15;77.41;100895.09;7369632;19;20375;-62
2022/09/13 07:17:32;;;;;;;0.00;0.00;;;;;;;13.24;77.42;100894.84;7368574;19;20497;-62
2022/09/13 07:19:58;;;;;;;0.00;0.00;;;;;;;13.33;77.25;100896.34;7368258;19;20025;-62
2022/09/13 07:22:26;;;;;;;0.00;0.00;;;;;;;13.42;77.50;100901.28;7367457;19;20029;-63
2022/09/13 07:24:52;;;;;;;0.00;0.00;;;;;;;13.50;77.38;100894.03;7368545;19;20508;-62
2022/09/13 07:27:18;;;;;;;0.00;0.00;;;;;;;13.54;77.11;100889.56;7365642;19;20081;-62
2022/09/13 07:29:43;;;;;;;0.00;0.00;;;;;;;13.67;77.31;100890.84;7368272;19;20015;-62
2022/09/13 07:32:09;;;;;;;0.00;0.00;;;;;;;13.76;76.92;100898.44;7366565;19;20082;-63
2022/09/13 07:34:34;;;;;;;0.00;0.00;;;;;;;13.85;76.86;100894.66;7368519;19;20014;-62
2022/09/13 07:37:00;;;;;;;0.00;0.00;;;;;;;13.93;77.01;100878.63;7366077;19;20779;-61
2022/09/13 07:39:25;;;;;;;0.00;0.00;;;;;;;14.01;76.49;100882.72;7362130;19;20039;-62
2022/09/13 07:41:52;;;;;;;0.00;0.00;;;;;;;14.10;76.75;100884.19;7363259;19;20007;-62
2022/09/13 07:44:18;;;;;;;0.00;0.00;;;;;;;14.16;76.25;100873.47;7361087;19;20131;-63
2022/09/13 07:46:43;;;;;;;0.00;0.00;;;;;;;14.28;76.35;100888.78;7369336;19;20021;-62
2022/09/13 07:49:13;;;;;;;0.08;0.08;;;;;;;14.42;76.54;100876.94;7367271;19;20018;-63
2022/09/13 07:51:41;;;;;;;0.00;0.00;;;;;;;14.49;76.38;100871.44;7367330;19;20640;-62
2022/09/13 07:54:11;;;;;;;0.00;0.00;;;;;;;14.60;76.06;100857.03;7366993;19;20364;-62
2022/09/13 07:56:38;;;;;;;0.00;0.00;;;;;;;14.68;75.87;100868.16;7360062;19;20073;-62
2022/09/13 07:59:06;;;;;;;0.10;0.10;;;;;;;14.76;75.78;100859.06;7365943;19;20014;-62
2022/09/13 08:01:49;;;;;;;0.00;0.00;;;;;;;14.90;76.35;100865.56;7363977;19;20910;-62
2022/09/13 08:04:17;;;;;;;0.00;0.00;;;;;;;14.90;75.22;100863.81;7362437;19;20018;-62
2022/09/13 08:06:43;;;;;;;0.00;0.00;;;;;;;14.95;75.15;100863.63;7364470;19;20089;-63
2022/09/13 08:09:09;;;;;;;0.00;0.00;;;;;;;15.01;75.25;100863.41;7365321;19;20070;-64
2022/09/13 08:11:37;;;;;;;0.00;0.00;;;;;;;15.04;75.49;100856.22;7363597;19;20017;-61
2022/09/13 08:14:05;;;;;;;0.00;0.00;;;;;;;15.14;75.06;100864.63;7362657;19;20043;-60
2022/09/13 08:16:31;;;;;;;0.00;0.00;;;;;;;15.21;74.97;100871.38;7368160;19;20106;-61
2022/09/13 08:18:59;;;;;;;0.00;0.00;;;;;;;15.28;75.26;100877.25;7366521;19;20029;-66
2022/09/13 08:21:26;;;;;;;0.00;0.00;;;;;;;15.32;75.33;100879.69;7366917;19;20010;-62
2022/09/13 08:23:55;;;;;;;0.00;0.00;;;;;;;15.43;75.24;100876.63;7364652;19;21207;-59
2022/09/13 08:26:21;;;;;;;0.00;0.00;;;;;;;15.48;75.28;100884.34;7360203;19;20444;-56
2022/09/13 08:28:46;;;;;;;0.00;0.00;;;;;;;15.58;74.87;100881.28;7357356;19;20010;-53
2022/09/13 08:31:16;;;;;;;0.00;0.00;;;;;;;15.70;74.91;100882.59;7354011;19;20033;-57
2022/09/13 08:33:43;;;;;;;0.00;0.00;;;;;;;15.85;75.05;100889.00;7358070;19;20003;-55
2022/09/13 08:36:09;;;;;;;0.00;0.00;;;;;;;15.97;74.50;100891.13;7362610;19;20089;-57
2022/09/13 08:38:34;;;;;;;0.00;0.00;;;;;;;16.10;74.23;100888.81;7365632;19;20410;-57
2022/09/13 08:41:43;;;;;;;0.03;0.03;;;;;;;16.33;75.27;100886.06;7361056;19;20018;-56
2022/09/13 08:44:32;;;;;;;0.00;0.00;;;;;;;16.49;75.01;100885.41;7259737;19;2004505;-58
2022/09/13 08:47:23;;;;;;;0.00;0.00;;;;;;;16.71;74.63;100885.28;7362501;19;20078;-56
2022/09/13 08:49:55;;;;;;;0.00;0.00;;;;;;;16.81;73.45;100882.19;7262439;19;2004625;-57
2022/09/13 08:52:46;;;;;;;0.00;0.00;;;;;;;16.98;74.27;100893.75;7362516;19;20018;-56
2022/09/13 08:55:20;;;;;;;0.00;0.00;;;;;;;17.11;73.81;100900.16;7258720;19;2004548;-54
2022/09/13 08:57:59;;;;;;;0.00;0.00;;;;;;;17.20;73.33;100890.97;7362289;19;20003;-58
2022/09/13 09:01:02;;;;;;;0.00;0.00;;;;;;;17.29;73.02;100894.03;7362364;19;20014;-56
2022/09/13 09:03:31;;;;;;;0.00;0.00;;;;;;;17.37;72.16;100902.44;7257294;19;2004323;-57
2022/09/13 09:05:57;;;;;;;0.00;0.00;;;;;;;17.39;71.79;100902.38;7366284;19;20014;-58
2022/09/13 09:08:45;;;;;;;0.05;0.05;;;;;;;17.51;72.09;100893.84;7361622;19;20751;-58
2022/09/13 09:11:53;;;;;;;0.03;0.03;;;;;;;17.61;73.05;100904.81;7363208;19;20375;-57
2022/09/13 09:14:24;;;;;;;0.10;0.10;;;;;;;17.60;71.18;100903.13;7260918;19;2004243;-58
2022/09/13 09:17:32;;;;;;;0.08;0.08;;;;;;;17.72;72.44;100889.31;7360786;19;20014;-58
2022/09/13 09:20:15;;;;;;;0.08;0.08;;;;;;;17.75;71.39;100891.00;7259825;19;2004283;-57
2022/09/13 09:22:43;;;;;;;0.10;0.10;;;;;;;17.73;70.52;100884.91;7362852;19;20009;-58
2022/09/13 09:25:10;;;;;;;;;;;;;;;17.87;73.23;100891.22;7365606;19;20022;-57
2022/09/13 09:27:35;;;;;;;0.00;0.00;;;;;;;17.84;71.14;100886.09;7364867;19;19944;-56
2022/09/13 09:30:01;;;;;;;0.00;0.00;;;;;;;17.88;70.75;100890.28;7362612;19;20847;-57
2022/09/13 09:32:48;;;;;;;0.00;0.00;;;;;;;17.97;71.19;100890.75;7365772;19;20039;-58
2022/09/13 09:35:22;;;;;;;;;;;;;;;18.10;72.71;100882.16;7366249;19;20101;-58
2022/09/13 09:38:01;;;;;;;0.00;0.00;;;;;;;18.14;71.70;100890.75;7363496;19;19926;-59
2022/09/13 09:40:28;;;;;;;0.00;0.00;;;;;;;18.13;70.65;100891.69;7361305;19;20805;-58
2022/09/13 09:42:53;;;;;;;0.00;0.00;;;;;;;18.20;70.14;100886.94;7363252;19;20085;-55
2022/09/13 09:45:33;;;;;;;0.00;0.00;;;;;;;18.33;70.83;100885.38;7361619;19;20095;-56
2022/09/13 09:48:08;;;;;;;0.00;0.00;;;;;;;18.45;70.90;100892.69;7363551;19;20010;-58
2022/09/13 09:50:43;;;;;;;0.00;0.00;;;;;;;18.52;71.12;100877.34;7362273;19;20018;-58
2022/09/13 09:53:17;;;;;;;0.00;0.00;;;;;;;18.71;70.75;100893.97;7363332;19;20002;-59
2022/09/13 09:55:56;;;;;;;0.08;0.08;;;;;;;18.86;70.75;100893.16;7360823;19;20014;-58
2022/09/13 09:58:42;;;;;;;0.10;0.10;;;;;;;19.03;70.62;100904.63;7359655;19;20018;-57
2022/09/13 10:01:33;;;;;;;0.03;0.03;;;;;;;19.12;69.80;100896.19;7351951;19;20014;-57
2022/09/13 10:04:02;;;;;;;0.00;0.00;;;;;;;19.19;69.29;100890.44;7355972;19;20025;-57
2022/09/13 10:06:29;;;;;;;0.00;0.00;;;;;;;19.23;68.31;100885.84;7360584;19;20013;-59
2022/09/13 10:09:05;;;;;;;0.00;0.00;;;;;;;19.36;69.02;100884.22;7360932;19;20007;-58
2022/09/13 10:11:58;;;;;;;0.00;0.00;;;;;;;19.53;69.91;100895.66;7361096;19;20022;-62
2022/09/13 10:14:36;;;;;;;0.10;0.10;;;;;;;19.59;69.68;100887.34;7251471;19;2004492;-58
2022/09/13 10:17:20;;;;;;;0.10;0.10;;;;;;;19.66;68.46;100881.63;7361654;19;20521;-58
2022/09/13 10:20:02;;;;;;;0.00;0.00;;;;;;;19.76;69.22;100883.75;7360632;19;20010;-57
2022/09/13 10:22:30;;;;;;;0.08;0.08;;;;;;;19.76;67.41;100879.28;7359459;19;20013;-55
2022/09/13 10:25:14;;;;;;;0.00;0.00;;;;;;;19.92;68.12;100874.84;7361050;19;20010;-56
2022/09/13 10:27:50;;;;;;;0.00;0.00;;;;;;;20.00;68.29;100873.50;7362399;19;20073;-57
2022/09/13 10:30:36;;;;;;;0.00;0.00;;;;;;;20.06;67.13;100876.66;7361966;19;20654;-57
2022/09/13 10:33:02;;;;;;;0.10;0.10;;;;;;;20.03;64.48;100870.69;7357705;19;20035;-58
2022/09/13 10:35:28;;;;;;;0.00;0.00;;;;;;;20.04;64.14;100872.41;7356420;19;20098;-57
2022/09/13 10:37:54;;;;;;;0.10;0.10;;;;;;;20.04;65.03;100880.34;7359829;19;20371;-55
2022/09/13 10:40:25;;;;;;;0.10;0.10;;;;;;;20.08;65.53;100885.38;7358209;19;20078;-60
2022/09/13 10:42:56;;;;;;;0.00;0.00;;;;;;;20.09;66.05;100891.53;7357435;19;20014;-57
2022/09/13 10:45:28;;;;;;;0.00;0.00;;;;;;;20.08;66.22;100885.38;7359833;19;20013;-58
2022/09/13 10:47:59;;;;;;;0.00;0.00;;;;;;;20.06;66.14;100887.25;7362020;19;20015;-59
2022/09/13 10:50:30;;;;;;;0.00;0.00;;;;;;;20.14;65.92;100889.47;7356008;19;20017;-62
2022/09/13 10:52:58;;;;;;;0.03;0.03;;;;;;;20.14;65.16;100889.47;7358186;19;20018;-62
2022/09/13 10:55:25;;;;;;;0.00;0.00;;;;;;;20.16;64.55;100892.84;7357067;19;20014;-64
2022/09/13 10:58:15;;;;;;;0.00;0.00;;;;;;;20.29;66.46;100893.00;7355102;19;20014;-61
2022/09/13 11:01:15;;;;;;;0.05;0.05;;;;;;;20.32;66.20;100896.28;7256769;19;2004426;-63
2022/09/13 11:03:43;;;;;;;0.00;0.00;;;;;;;20.30;65.42;100890.25;7259001;19;2004408;-64
2022/09/13 11:06:14;;;;;;;0.00;0.00;;;;;;;20.35;64.64;100887.31;7355735;19;20074;-64
2022/09/13 11:08:49;;;;;;;0.00;0.00;;;;;;;20.43;65.83;100888.56;7356515;19;20030;-62
2022/09/13 11:11:33;;;;;;;0.10;0.10;;;;;;;20.41;63.76;100886.94;7355520;19;20022;-62
2022/09/13 11:14:01;;;;;;;0.00;0.00;;;;;;;20.49;63.93;100895.31;7358504;19;20497;-64
2022/09/13 11:16:44;;;;;;;0.10;0.10;;;;;;;20.51;65.13;100897.88;7364244;19;20070;-61
2022/09/13 11:19:22;;;;;;;0.00;0.00;;;;;;;20.53;64.71;100891.53;7363693;19;20015;-64
2022/09/13 11:21:50;;;;;;;;;;;;;;;20.65;66.47;100895.25;7363267;19;20386;-62
2022/09/13 11:24:18;;;;;;;0.03;0.03;;;;;;;20.63;64.73;100897.13;7363945;19;19919;-63
2022/09/13 11:26:58;;;;;;;0.00;0.00;;;;;;;20.62;63.84;100895.41;7363681;19;20022;-63
2022/09/13 11:29:58;;;;;;;0.00;0.00;;;;;;;20.75;65.11;100888.41;7361279;19;20010;-64
2022/09/13 11:32:54;;;;;;;0.10;0.10;;;;;;;20.80;63.49;100888.97;7262974;19;2004193;-63
2022/09/13 11:35:40;;;;;;;0.10;0.10;;;;;;;20.84;61.92;100890.50;7258688;19;2004609;-62
2022/09/13 11:38:33;;;;;;;0.00;0.00;;;;;;;20.93;62.12;100884.63;7362349;19;20462;-63
2022/09/13 11:41:37;;;;;;;0.00;0.00;;;;;;;21.06;64.98;100883.81;7266369;19;2004279;-62
2022/09/13 11:44:37;;;;;;;0.00;0.00;;;;;;;21.13;62.95;100882.47;7263782;19;2004452;-62
2022/09/13 11:47:20;;;;;;;0.00;0.00;;;;;;;21.24;64.47;100877.34;7260341;19;2004505;-62
2022/09/13 11:50:01;;;;;;;0.00;0.00;;;;;;;21.35;64.35;100872.22;7365265;19;20779;-62
2022/09/13 11:53:04;;;;;;;0.00;0.00;;;;;;;21.76;64.40;100868.66;7365990;19;20021;-62